createdAt,value
2023-01-26T07:33:40.693Z,-0.14
2023-01-26T07:36:07.960Z,-0.23
2023-01-26T07:38:34.937Z,-0.13
2023-01-26T07:41:06.889Z,-0.17
2023-01-26T07:43:35.863Z,-0.23
2023-01-26T07:46:03.427Z,-0.17
2023-01-26T07:48:30.964Z,-0.13
2023-01-26T07:51:03.163Z,-0.21
2023-01-26T07:53:30.759Z,-0.06
2023-01-26T07:56:08.825Z,-0.05
2023-01-26T07:58:36.442Z,-0.07
2023-01-26T08:01:11.180Z,-0.14
2023-01-26T08:03:38.653Z,-0.10
2023-01-26T08:06:07.255Z,-0.10
2023-01-26T08:08:35.349Z,-0.19
2023-01-26T08:11:06.485Z,0.04
2023-01-26T08:13:36.020Z,-0.03
2023-01-26T08:16:11.229Z,0.02
2023-01-26T08:18:42.700Z,0.04
2023-01-26T08:21:19.972Z,0.14
2023-01-26T08:23:51.390Z,-0.02
2023-01-26T08:26:28.644Z,0.12
2023-01-26T08:28:55.531Z,0.10
2023-01-26T08:31:22.894Z,0.11
2023-01-26T08:33:54.697Z,0.05
2023-01-26T08:36:22.944Z,0.00
2023-01-26T08:38:50.742Z,0.15
2023-01-26T08:41:18.128Z,0.31
2023-01-26T08:43:47.677Z,0.25
2023-01-26T08:46:15.173Z,0.21
2023-01-26T08:48:41.956Z,0.26
2023-01-26T08:51:12.574Z,0.17
2023-01-26T08:53:39.769Z,0.31
2023-01-26T08:56:11.946Z,0.29
2023-01-26T08:58:39.356Z,0.35
2023-01-26T09:01:18.752Z,0.32
2023-01-26T09:03:45.578Z,0.21
2023-01-26T09:06:14.976Z,0.25
2023-01-26T09:08:42.422Z,0.12
2023-01-26T09:11:13.252Z,0.26
2023-01-26T09:13:40.419Z,0.35
2023-01-26T09:16:12.607Z,0.34
2023-01-26T09:18:39.451Z,0.28
2023-01-26T09:21:07.942Z,0.35
2023-01-26T09:23:37.724Z,0.34
2023-01-26T09:26:05.003Z,0.31
2023-01-26T09:28:32.577Z,0.39
2023-01-26T09:31:06.088Z,0.29
2023-01-26T09:33:33.459Z,0.34
2023-01-26T09:36:05.137Z,0.41
2023-01-26T09:38:34.559Z,0.46
2023-01-26T09:41:10.346Z,0.45
2023-01-26T09:43:55.141Z,0.53
2023-01-26T09:46:57.151Z,0.52
2023-01-26T09:49:50.106Z,0.49
2023-01-26T09:52:22.959Z,0.44
2023-01-26T09:55:01.335Z,0.49
2023-01-26T09:58:03.084Z,0.35
2023-01-26T10:00:46.385Z,0.45
2023-01-26T10:03:50.505Z,0.58
2023-01-26T10:06:29.210Z,0.63
2023-01-26T10:09:00.734Z,0.68
2023-01-26T10:11:27.428Z,0.66
2023-01-26T10:14:02.761Z,0.70
2023-01-26T10:16:33.308Z,0.76
2023-01-26T10:19:09.860Z,0.80
2023-01-26T10:21:48.897Z,0.83
2023-01-26T10:24:22.068Z,0.79
2023-01-26T10:26:52.762Z,0.79
2023-01-26T10:29:20.851Z,0.73
2023-01-26T10:31:55.820Z,0.80
2023-01-26T10:34:30.036Z,0.68
2023-01-26T10:37:26.882Z,0.84
2023-01-26T10:40:07.360Z,0.84
2023-01-26T10:42:36.198Z,0.89
2023-01-26T10:45:07.361Z,0.87
2023-01-26T10:47:34.591Z,0.86
2023-01-26T10:50:28.385Z,0.80
2023-01-26T10:53:05.847Z,0.87
2023-01-26T10:55:36.617Z,0.91
2023-01-26T10:58:03.667Z,0.89
2023-01-26T11:00:33.657Z,0.83
2023-01-26T11:03:18.710Z,0.87
2023-01-26T11:05:48.266Z,0.79
2023-01-26T11:08:36.087Z,0.90
2023-01-26T11:11:04.231Z,0.77
2023-01-26T11:13:31.207Z,0.79
2023-01-26T11:16:21.017Z,0.87
2023-01-26T11:19:01.185Z,0.91
2023-01-26T11:21:49.765Z,0.91
2023-01-26T11:24:26.970Z,1.14
2023-01-26T11:27:34.058Z,1.00
2023-01-26T11:30:12.893Z,1.05
2023-01-26T11:32:51.544Z,1.13
2023-01-26T11:35:30.041Z,1.28
2023-01-26T11:38:09.855Z,1.26
2023-01-26T11:40:48.644Z,1.32
2023-01-26T11:43:25.827Z,1.27
2023-01-26T11:46:05.058Z,1.27
2023-01-26T11:48:53.344Z,1.14
2023-01-26T11:51:51.765Z,1.16
2023-01-26T11:54:57.480Z,1.20
2023-01-26T11:57:33.587Z,0.94
2023-01-26T12:00:28.573Z,0.89
2023-01-26T12:03:03.751Z,0.87
2023-01-26T12:05:53.669Z,0.89
2023-01-26T12:08:38.630Z,0.93
2023-01-26T12:11:23.753Z,0.89
2023-01-26T12:13:54.330Z,0.97
2023-01-26T12:16:46.599Z,0.97
2023-01-26T12:19:19.569Z,0.80
2023-01-26T12:21:49.985Z,0.96
2023-01-26T12:25:16.113Z,0.86
2023-01-26T12:27:42.351Z,0.90
2023-01-26T12:30:38.308Z,0.76
2023-01-26T12:33:05.145Z,0.84
2023-01-26T12:35:50.683Z,0.91
2023-01-26T12:38:36.036Z,0.86
2023-01-26T12:41:21.555Z,0.90
2023-01-26T12:44:17.802Z,0.94
2023-01-26T12:46:51.958Z,1.01
2023-01-26T12:49:25.611Z,0.93
2023-01-26T12:52:02.739Z,1.07
2023-01-26T12:55:01.795Z,1.07
2023-01-26T12:57:42.631Z,1.08
2023-01-26T13:00:24.287Z,1.18
2023-01-26T13:02:58.672Z,1.16
2023-01-26T13:05:39.159Z,1.10
2023-01-26T13:08:30.589Z,1.21
2023-01-26T13:11:05.294Z,1.30
2023-01-26T13:13:56.063Z,1.23
2023-01-26T13:16:25.631Z,1.39
2023-01-26T13:18:57.403Z,1.34
2023-01-26T13:21:43.063Z,1.38
2023-01-26T13:24:19.305Z,1.41
2023-01-26T13:26:48.576Z,1.39
2023-01-26T13:29:27.609Z,1.44
2023-01-26T13:32:20.623Z,1.34
2023-01-26T13:34:54.862Z,1.42
2023-01-26T13:37:48.089Z,1.30
2023-01-26T13:40:26.005Z,1.31
2023-01-26T13:43:25.651Z,1.31
2023-01-26T13:46:05.728Z,1.32
2023-01-26T13:48:49.972Z,1.34
2023-01-26T13:51:31.837Z,1.35
2023-01-26T13:54:04.417Z,1.37
2023-01-26T13:56:39.232Z,1.31
2023-01-26T13:59:17.347Z,1.42
2023-01-26T14:01:46.672Z,1.51
2023-01-26T14:04:16.775Z,1.49
2023-01-26T14:06:49.862Z,1.54
2023-01-26T14:09:18.866Z,1.51
2023-01-26T14:11:53.060Z,1.47
2023-01-26T14:14:25.140Z,1.45
2023-01-26T14:16:51.802Z,1.47
2023-01-26T14:19:21.977Z,1.48
2023-01-26T14:22:02.572Z,1.52
2023-01-26T14:24:35.275Z,1.55
2023-01-26T14:27:03.886Z,1.51
2023-01-26T14:29:30.863Z,1.60
2023-01-26T14:32:00.086Z,1.62
2023-01-26T14:34:29.421Z,1.68
2023-01-26T14:37:14.848Z,1.63
2023-01-26T14:39:48.083Z,1.70
2023-01-26T14:42:20.640Z,1.72
2023-01-26T14:44:47.579Z,1.76
2023-01-26T14:47:22.066Z,1.73
2023-01-26T14:50:00.219Z,1.70
2023-01-26T14:52:34.009Z,1.72
2023-01-26T14:55:31.960Z,1.80
2023-01-26T14:57:59.342Z,1.70
2023-01-26T15:00:29.526Z,1.82
2023-01-26T15:03:02.070Z,1.79
2023-01-26T15:05:37.389Z,1.79
2023-01-26T15:08:05.638Z,1.80
2023-01-26T15:10:38.144Z,1.89
2023-01-26T15:13:10.697Z,1.85
2023-01-26T15:15:39.848Z,1.83
2023-01-26T15:18:18.575Z,1.86
2023-01-26T15:21:05.089Z,1.80
2023-01-26T15:23:34.860Z,1.78
2023-01-26T15:26:06.843Z,1.83
2023-01-26T15:28:34.798Z,1.89
2023-01-26T15:31:01.831Z,1.89
2023-01-26T15:33:54.084Z,1.85
2023-01-26T15:36:34.707Z,1.89
2023-01-26T15:39:18.538Z,1.86
2023-01-26T15:41:47.689Z,1.82
2023-01-26T15:44:19.954Z,1.87
2023-01-26T15:46:46.768Z,1.87
2023-01-26T15:49:23.254Z,1.89
2023-01-26T15:51:52.003Z,1.89
2023-01-26T15:54:20.436Z,1.92
2023-01-26T15:56:49.630Z,1.87
2023-01-26T15:59:19.819Z,1.86
2023-01-26T16:01:54.705Z,1.87
2023-01-26T16:04:23.076Z,1.99
2023-01-26T16:06:49.794Z,2.00
2023-01-26T16:09:16.679Z,1.96
2023-01-26T16:11:55.658Z,1.96
2023-01-26T16:14:25.703Z,1.92
2023-01-26T16:16:52.834Z,1.93
2023-01-26T16:19:34.940Z,1.96
2023-01-26T16:22:05.707Z,1.95
2023-01-26T16:24:34.745Z,1.97
2023-01-26T16:27:10.436Z,1.99
2023-01-26T16:29:37.478Z,2.05
2023-01-26T16:32:22.577Z,2.06
2023-01-26T16:34:49.390Z,2.05
2023-01-26T16:37:27.350Z,2.14
2023-01-26T16:39:54.245Z,2.10
2023-01-26T16:42:21.913Z,2.16
2023-01-26T16:44:49.142Z,2.14
2023-01-26T16:47:16.393Z,2.18
2023-01-26T16:49:43.547Z,2.18
2023-01-26T16:52:12.548Z,2.18
2023-01-26T16:54:39.764Z,2.17
2023-01-26T16:57:09.868Z,2.23
2023-01-26T16:59:37.905Z,2.26
2023-01-26T17:02:05.042Z,2.20
2023-01-26T17:04:37.874Z,2.24
2023-01-26T17:07:05.070Z,2.24
2023-01-26T17:09:38.470Z,2.26
2023-01-26T17:12:06.760Z,2.24
2023-01-26T17:14:33.954Z,2.26
2023-01-26T17:17:03.816Z,2.28
2023-01-26T17:19:30.872Z,2.30
2023-01-26T17:22:01.648Z,2.40
2023-01-26T17:24:28.785Z,2.40
2023-01-26T17:26:56.346Z,2.41
2023-01-26T17:29:25.009Z,2.48
2023-01-26T17:31:52.919Z,2.47
2023-01-26T17:34:21.659Z,2.49
2023-01-26T17:36:48.766Z,2.52
2023-01-26T17:39:19.046Z,2.49
2023-01-26T17:41:46.477Z,2.52
2023-01-26T17:44:14.528Z,2.49
2023-01-26T17:46:41.241Z,2.55
2023-01-26T17:49:08.044Z,2.57
2023-01-26T17:51:34.924Z,2.65
2023-01-26T17:54:01.882Z,2.62
2023-01-26T17:56:28.956Z,2.74
2023-01-26T17:58:56.050Z,2.62
2023-01-26T18:01:29.383Z,2.68
2023-01-26T18:03:56.291Z,2.59
2023-01-26T18:06:23.588Z,2.62
2023-01-26T18:08:50.544Z,2.64
2023-01-26T18:11:21.339Z,2.64
2023-01-26T18:13:52.152Z,2.71
2023-01-26T18:16:20.714Z,2.62
2023-01-26T18:18:54.841Z,2.57
2023-01-26T18:21:24.304Z,2.69
2023-01-26T18:23:56.054Z,2.72
2023-01-26T18:26:24.522Z,2.69
2023-01-26T18:28:59.608Z,2.69
2023-01-26T18:31:42.385Z,2.71
2023-01-26T18:34:11.256Z,2.71
2023-01-26T18:36:39.402Z,2.75
2023-01-26T18:39:11.761Z,2.72
2023-01-26T18:41:42.846Z,2.69
2023-01-26T18:44:18.646Z,2.79
2023-01-26T18:46:51.439Z,2.82
2023-01-26T18:49:28.349Z,2.77
2023-01-26T18:51:55.046Z,2.88
